createdAt,value
2023-02-09T00:01:09.428Z,7.55
2023-02-09T00:03:36.848Z,10.20
2023-02-09T00:06:05.990Z,7.88
2023-02-09T00:08:34.115Z,7.63
2023-02-09T00:11:01.204Z,6.90
2023-02-09T00:13:28.224Z,10.27
2023-02-09T00:16:03.090Z,9.27
2023-02-09T00:18:32.047Z,9.98
2023-02-09T00:21:08.749Z,8.65
2023-02-09T00:23:39.873Z,7.10
2023-02-09T00:26:10.416Z,7.10
2023-02-09T00:28:37.913Z,7.32
2023-02-09T00:31:13.296Z,7.68
2023-02-09T00:33:40.468Z,7.55
2023-02-09T00:36:09.732Z,6.97
2023-02-09T00:38:37.207Z,8.18
2023-02-09T00:41:04.332Z,5.80
2023-02-09T00:43:32.034Z,7.13
2023-02-09T00:45:59.176Z,6.57
2023-02-09T00:48:26.597Z,5.72
2023-02-09T00:50:53.979Z,5.70
2023-02-09T00:53:22.258Z,9.20
2023-02-09T00:55:50.156Z,5.25
2023-02-09T00:58:17.603Z,6.90
2023-02-09T01:00:45.300Z,6.28
2023-02-09T01:03:12.433Z,4.75
2023-02-09T01:05:43.092Z,6.05
2023-02-09T01:08:10.383Z,5.32
2023-02-09T01:10:38.139Z,4.07
2023-02-09T01:13:05.790Z,6.20
2023-02-09T01:15:32.988Z,6.50
2023-02-09T01:18:00.337Z,6.18
2023-02-09T01:20:28.164Z,5.45
2023-02-09T01:22:55.398Z,5.75
2023-02-09T01:25:22.387Z,7.65
2023-02-09T01:27:49.361Z,5.70
2023-02-09T01:30:16.846Z,5.50
2023-02-09T01:32:44.164Z,9.98
2023-02-09T01:35:11.472Z,6.03
2023-02-09T01:37:38.686Z,8.63
2023-02-09T01:40:07.140Z,6.38
2023-02-09T01:42:34.490Z,6.15
2023-02-09T01:45:21.349Z,5.88
2023-02-09T01:47:58.335Z,6.22
2023-02-09T01:50:27.449Z,7.45
2023-02-09T01:52:55.939Z,7.45
2023-02-09T01:55:27.633Z,6.13
2023-02-09T01:58:02.726Z,9.20
2023-02-09T02:00:30.058Z,6.75
2023-02-09T02:03:00.988Z,9.73
2023-02-09T02:05:29.467Z,5.63
2023-02-09T02:08:11.085Z,5.68
2023-02-09T02:10:38.459Z,5.72
2023-02-09T02:13:05.461Z,6.07
2023-02-09T02:16:26.717Z,7.78
2023-02-09T02:19:19.563Z,7.97
2023-02-09T02:22:04.899Z,6.25
2023-02-09T02:24:51.049Z,8.52
2023-02-09T02:27:36.518Z,6.00
2023-02-09T02:30:38.985Z,9.35
2023-02-09T02:33:48.379Z,9.40
2023-02-09T02:36:18.409Z,8.02
2023-02-09T02:39:07.184Z,7.05
2023-02-09T02:42:10.941Z,5.75
2023-02-09T02:44:41.527Z,6.18
2023-02-09T02:47:12.868Z,10.15
2023-02-09T02:49:50.778Z,7.53
2023-02-09T02:52:18.061Z,9.30
2023-02-09T02:55:00.721Z,8.35
2023-02-09T02:57:33.755Z,10.95
2023-02-09T03:00:10.382Z,8.95
2023-02-09T03:02:48.435Z,10.52
2023-02-09T03:05:18.236Z,11.30
2023-02-09T03:07:45.211Z,9.55
2023-02-09T03:10:24.711Z,9.98
2023-02-09T03:12:51.622Z,10.95
2023-02-09T03:15:48.071Z,10.02
2023-02-09T03:18:25.180Z,9.70
2023-02-09T03:20:59.879Z,12.40
2023-02-09T03:23:45.642Z,8.55
2023-02-09T03:26:21.739Z,11.05
2023-02-09T03:28:52.766Z,11.02
2023-02-09T03:31:20.697Z,12.88
2023-02-09T03:33:48.252Z,13.25
2023-02-09T03:36:19.466Z,10.45
2023-02-09T03:38:46.558Z,14.32
2023-02-09T03:41:13.536Z,10.85
2023-02-09T03:43:59.055Z,12.48
2023-02-09T03:46:26.177Z,11.27
2023-02-09T03:48:53.144Z,10.25
2023-02-09T03:51:20.366Z,12.82
2023-02-09T03:53:47.649Z,12.43
2023-02-09T03:56:14.576Z,11.93
2023-02-09T03:58:41.529Z,16.40
2023-02-09T04:01:10.816Z,9.98
2023-02-09T04:03:39.990Z,9.57
2023-02-09T04:06:07.192Z,10.77
2023-02-09T04:08:34.245Z,18.27
2023-02-09T04:11:01.567Z,11.00
2023-02-09T04:13:29.073Z,12.00
2023-02-09T04:15:56.429Z,16.17
2023-02-09T04:18:23.502Z,13.75
2023-02-09T04:20:50.525Z,12.18
2023-02-09T04:23:19.474Z,17.17
2023-02-09T04:25:47.625Z,13.70
2023-02-09T04:28:14.560Z,13.30
2023-02-09T04:30:44.113Z,11.90
2023-02-09T04:33:11.421Z,17.10
2023-02-09T04:35:38.590Z,13.93
2023-02-09T04:38:05.634Z,16.38
2023-02-09T04:40:33.001Z,14.90
2023-02-09T04:42:59.973Z,12.52
2023-02-09T04:45:27.152Z,14.18
2023-02-09T04:47:54.192Z,15.43
2023-02-09T04:50:22.029Z,15.38
2023-02-09T04:52:48.994Z,13.50
2023-02-09T04:55:17.845Z,11.48
2023-02-09T04:58:03.233Z,15.45
2023-02-09T05:00:30.233Z,19.25
2023-02-09T05:02:57.400Z,13.05
2023-02-09T05:05:24.453Z,17.92
2023-02-09T05:07:51.655Z,16.35
2023-02-09T05:10:18.852Z,18.15
2023-02-09T05:12:46.208Z,15.40
2023-02-09T05:15:13.795Z,17.92
2023-02-09T05:17:40.871Z,15.75
2023-02-09T05:20:08.938Z,19.92
2023-02-09T05:22:37.072Z,21.00
2023-02-09T05:25:04.424Z,16.55
2023-02-09T05:27:31.377Z,27.20
2023-02-09T05:29:58.520Z,23.33
2023-02-09T05:32:26.067Z,17.85
2023-02-09T05:34:53.249Z,23.33
2023-02-09T05:37:20.172Z,17.42
2023-02-09T05:39:47.131Z,18.40
2023-02-09T05:42:16.907Z,16.10
2023-02-09T05:44:45.822Z,30.38
2023-02-09T05:47:14.671Z,23.83
2023-02-09T05:49:42.335Z,25.95
2023-02-09T05:52:10.173Z,19.85
2023-02-09T05:54:37.927Z,21.50
2023-02-09T05:57:06.370Z,16.35
2023-02-09T05:59:33.631Z,21.38
2023-02-09T06:02:01.578Z,22.45
2023-02-09T06:04:29.325Z,28.35
2023-02-09T06:06:56.996Z,22.52
2023-02-09T06:09:24.141Z,16.92
2023-02-09T06:11:51.987Z,23.17
2023-02-09T06:14:19.634Z,17.17
2023-02-09T06:16:46.594Z,21.63
2023-02-09T06:19:18.232Z,24.58
2023-02-09T06:21:45.658Z,19.60
2023-02-09T06:24:13.890Z,26.67
2023-02-09T06:26:41.725Z,16.20
2023-02-09T06:29:09.914Z,15.40
2023-02-09T06:31:38.535Z,18.45
2023-02-09T06:34:06.158Z,27.85
2023-02-09T06:36:33.512Z,16.52
2023-02-09T06:39:01.344Z,21.40
2023-02-09T06:41:28.751Z,25.67
2023-02-09T06:43:56.136Z,22.85
2023-02-09T06:46:23.201Z,18.90
2023-02-09T06:48:50.643Z,25.17
2023-02-09T06:51:17.804Z,16.50
2023-02-09T06:53:53.410Z,32.92
2023-02-09T06:56:23.567Z,18.48
2023-02-09T06:58:50.757Z,24.50
2023-02-09T07:01:18.076Z,44.58
2023-02-09T07:03:45.561Z,21.05
2023-02-09T07:06:15.669Z,37.70
2023-02-09T07:08:43.339Z,28.85
2023-02-09T07:11:15.656Z,20.20
2023-02-09T07:13:43.161Z,14.60
2023-02-09T07:16:12.175Z,37.50
2023-02-09T07:18:40.461Z,40.13
2023-02-09T07:21:10.418Z,15.48
2023-02-09T07:23:38.177Z,38.75
2023-02-09T07:28:48.261Z,25.88
2023-02-09T07:31:16.470Z,21.33
2023-02-09T07:33:43.740Z,22.40
2023-02-09T07:36:12.626Z,31.23
2023-02-09T07:38:40.766Z,21.33
2023-02-09T07:41:17.063Z,17.10
2023-02-09T07:43:44.238Z,22.75
2023-02-09T07:46:13.800Z,18.85
2023-02-09T07:48:40.993Z,13.15
2023-02-09T07:51:21.083Z,13.65
2023-02-09T07:53:48.871Z,19.63
2023-02-09T07:56:15.913Z,18.40
2023-02-09T07:58:42.888Z,28.23
2023-02-09T08:01:12.598Z,19.48
2023-02-09T08:03:42.663Z,36.45
2023-02-09T08:06:36.268Z,17.20
2023-02-09T08:09:08.667Z,15.30
2023-02-09T08:11:58.146Z,11.32
2023-02-09T08:14:30.065Z,13.32
2023-02-09T08:17:20.197Z,16.40
2023-02-09T08:19:59.060Z,20.15
2023-02-09T08:22:30.219Z,15.32
2023-02-09T08:24:58.051Z,17.25
2023-02-09T08:27:25.096Z,17.10
2023-02-09T08:29:52.425Z,15.55
2023-02-09T08:32:19.358Z,17.58
2023-02-09T08:34:46.283Z,22.48
2023-02-09T08:37:13.370Z,13.93
2023-02-09T08:39:40.318Z,15.05
2023-02-09T08:42:07.366Z,17.00
2023-02-09T08:44:34.514Z,20.13
2023-02-09T08:47:02.080Z,13.48
2023-02-09T08:49:29.184Z,20.90
2023-02-09T08:51:56.168Z,13.93
2023-02-09T08:54:23.516Z,19.20
2023-02-09T08:56:50.542Z,25.33
2023-02-09T08:59:20.012Z,14.43
2023-02-09T09:01:47.150Z,13.18
2023-02-09T09:04:14.321Z,44.60
2023-02-09T09:06:41.531Z,17.45
2023-02-09T09:09:08.617Z,20.00
2023-02-09T09:11:36.604Z,47.42
2023-02-09T09:14:03.839Z,28.10
2023-02-09T09:16:31.591Z,21.45
2023-02-09T09:18:58.654Z,26.02
2023-02-09T09:21:26.146Z,33.22
2023-02-09T09:23:53.200Z,24.67
2023-02-09T09:26:20.111Z,23.92
2023-02-09T09:28:51.249Z,15.15
2023-02-09T09:31:19.142Z,27.38
2023-02-09T09:33:46.565Z,27.50
2023-02-09T09:36:14.763Z,18.85
2023-02-09T09:38:42.448Z,16.73
2023-02-09T09:41:24.489Z,16.55
2023-02-09T09:43:53.645Z,13.40
2023-02-09T09:46:26.511Z,22.40
2023-02-09T09:48:58.485Z,27.42
2023-02-09T09:51:38.270Z,22.42
2023-02-09T09:54:08.979Z,20.88
2023-02-09T09:56:36.042Z,17.77
2023-02-09T09:59:03.262Z,22.52
2023-02-09T10:01:32.694Z,29.25
2023-02-09T10:04:11.823Z,32.13
2023-02-09T10:06:42.149Z,23.13
2023-02-09T10:09:33.420Z,22.67
2023-02-09T10:12:26.739Z,26.48
2023-02-09T10:14:53.719Z,22.48
2023-02-09T10:17:20.648Z,20.58
2023-02-09T10:20:01.922Z,16.27
2023-02-09T10:22:29.005Z,17.77
2023-02-09T10:24:56.044Z,23.80
2023-02-09T10:27:31.326Z,22.23
2023-02-09T10:30:20.827Z,26.20
2023-02-09T10:32:48.282Z,40.10
2023-02-09T10:35:27.587Z,22.95
2023-02-09T10:38:04.135Z,21.25
2023-02-09T10:40:33.175Z,22.42
2023-02-09T10:43:06.722Z,29.63
2023-02-09T10:45:45.618Z,22.05
2023-02-09T10:48:12.678Z,28.98
2023-02-09T10:50:51.569Z,23.70
2023-02-09T10:53:23.803Z,24.38
2023-02-09T10:55:51.549Z,22.55
2023-02-09T10:58:33.600Z,23.95
2023-02-09T11:01:09.802Z,23.52
2023-02-09T11:03:46.157Z,28.40
2023-02-09T11:06:19.052Z,23.95
2023-02-09T11:09:01.422Z,26.10
2023-02-09T11:11:38.184Z,23.33
2023-02-09T11:14:15.348Z,19.08
2023-02-09T11:17:17.667Z,25.95
2023-02-09T11:20:05.958Z,29.48
2023-02-09T11:22:32.865Z,27.95
2023-02-09T11:25:02.506Z,30.65
2023-02-09T11:27:41.707Z,29.67
2023-02-09T11:30:45.226Z,25.00
2023-02-09T11:33:40.830Z,27.00
2023-02-09T11:36:19.742Z,31.95
2023-02-09T11:38:56.494Z,23.83
2023-02-09T11:41:48.399Z,27.25
2023-02-09T11:44:27.930Z,28.80
2023-02-09T11:47:02.577Z,29.92
2023-02-09T11:49:37.173Z,22.65
2023-02-09T11:52:07.049Z,39.60
2023-02-09T11:54:36.444Z,43.28
2023-02-09T11:57:18.566Z,25.80
2023-02-09T11:59:56.480Z,25.30
2023-02-09T12:02:39.106Z,30.20
2023-02-09T12:05:11.371Z,26.15
2023-02-09T12:07:53.127Z,34.88
2023-02-09T12:10:43.817Z,28.63
2023-02-09T12:13:19.969Z,25.83
2023-02-09T12:15:52.070Z,32.53
2023-02-09T12:18:30.969Z,29.80
2023-02-09T12:21:04.484Z,28.00
2023-02-09T12:23:36.719Z,38.08
2023-02-09T12:26:13.358Z,30.40
2023-02-09T12:28:45.595Z,34.53
2023-02-09T12:31:19.348Z,28.05
2023-02-09T12:33:46.555Z,33.85
2023-02-09T12:36:13.707Z,27.23
2023-02-09T12:39:04.049Z,28.25
2023-02-09T12:41:51.324Z,40.83
2023-02-09T12:44:20.001Z,33.50
2023-02-09T12:46:55.797Z,22.92
2023-02-09T12:51:52.979Z,34.72
2023-02-09T12:54:41.503Z,32.70
2023-02-09T12:57:20.213Z,43.03
2023-02-09T12:59:53.318Z,41.97
2023-02-09T13:02:50.552Z,29.13
2023-02-09T13:05:23.531Z,32.25
2023-02-09T13:08:06.774Z,34.15
2023-02-09T13:10:43.141Z,29.30
2023-02-09T13:13:13.051Z,32.65
2023-02-09T13:15:52.460Z,30.02
2023-02-09T13:18:34.283Z,40.30
2023-02-09T13:21:38.090Z,31.63
2023-02-09T13:24:09.650Z,37.92
2023-02-09T13:26:48.344Z,37.13
2023-02-09T13:29:22.293Z,39.58
2023-02-09T13:31:55.308Z,38.58
2023-02-09T13:34:41.632Z,33.00
2023-02-09T13:37:29.940Z,41.00
2023-02-09T13:40:02.577Z,30.45
2023-02-09T13:42:35.528Z,31.92
2023-02-09T13:45:02.573Z,30.45
2023-02-09T13:47:30.240Z,33.15
2023-02-09T13:50:01.820Z,32.20
2023-02-09T13:52:38.974Z,32.63
2023-02-09T13:55:13.559Z,34.10
2023-02-09T13:57:43.991Z,36.10
2023-02-09T14:00:20.848Z,30.08
2023-02-09T14:02:55.442Z,29.15
2023-02-09T14:05:41.867Z,28.02
2023-02-09T14:08:10.442Z,37.33
2023-02-09T14:10:38.193Z,29.95
2023-02-09T14:13:15.805Z,29.90
2023-02-09T14:16:06.317Z,30.73
2023-02-09T14:18:52.160Z,31.08
2023-02-09T14:21:29.988Z,28.33
2023-02-09T14:23:58.571Z,36.78
2023-02-09T14:26:30.460Z,26.92
2023-02-09T14:29:32.050Z,28.17
2023-02-09T14:32:01.655Z,33.70
2023-02-09T14:34:31.887Z,33.70
2023-02-09T14:37:15.855Z,33.40
2023-02-09T14:39:56.603Z,33.63
2023-02-09T14:42:24.537Z,27.92
2023-02-09T14:44:58.139Z,28.05
2023-02-09T14:47:39.139Z,32.30
2023-02-09T14:50:14.603Z,25.42
2023-02-09T14:52:47.217Z,34.85
2023-02-09T14:55:30.855Z,29.05
2023-02-09T14:57:58.146Z,35.20
2023-02-09T15:00:28.357Z,29.77
2023-02-09T15:02:55.878Z,34.97
2023-02-09T15:05:26.161Z,30.42
2023-02-09T15:07:56.676Z,27.95
2023-02-09T15:10:28.268Z,35.50
2023-02-09T15:12:55.837Z,24.85
2023-02-09T15:15:24.244Z,28.60
2023-02-09T15:17:54.381Z,28.48
2023-02-09T15:20:25.724Z,23.63
2023-02-09T15:22:55.238Z,28.40
2023-02-09T15:25:23.855Z,24.67
2023-02-09T15:27:54.297Z,27.00
2023-02-09T15:30:25.833Z,26.50
2023-02-09T15:32:53.371Z,28.98
2023-02-09T15:35:23.611Z,29.25
2023-02-09T15:37:57.687Z,25.77
2023-02-09T15:40:55.291Z,26.75
2023-02-09T15:43:43.798Z,25.23
2023-02-09T15:46:30.097Z,24.75
2023-02-09T15:48:57.459Z,27.58
2023-02-09T15:51:27.402Z,17.20
2023-02-09T15:53:56.894Z,25.80
2023-02-09T15:56:24.094Z,28.95
2023-02-09T15:58:51.830Z,25.23
2023-02-09T16:01:19.382Z,22.33
2023-02-09T16:03:46.938Z,23.92
2023-02-09T16:06:25.178Z,24.55
2023-02-09T16:08:53.708Z,26.40
2023-02-09T16:11:29.516Z,20.33
2023-02-09T16:13:56.595Z,33.15
2023-02-09T16:16:25.731Z,24.70
2023-02-09T16:18:52.788Z,22.52
2023-02-09T16:21:29.232Z,22.17
2023-02-09T16:23:58.869Z,28.55
2023-02-09T16:26:27.841Z,20.23
2023-02-09T16:28:55.166Z,24.25
2023-02-09T16:31:23.252Z,25.67
2023-02-09T16:33:51.454Z,18.00
2023-02-09T16:36:21.471Z,19.90
2023-02-09T16:38:48.752Z,18.80
2023-02-09T16:41:37.383Z,29.95
2023-02-09T16:44:15.573Z,20.15
2023-02-09T16:46:43.005Z,22.10
2023-02-09T16:49:28.881Z,22.67
2023-02-09T16:51:57.724Z,23.45
2023-02-09T16:54:24.719Z,26.70
2023-02-09T16:56:54.514Z,33.92
2023-02-09T16:59:21.818Z,19.95
2023-02-09T17:01:49.304Z,22.15
2023-02-09T17:04:16.456Z,25.67
2023-02-09T17:06:45.059Z,26.20
2023-02-09T17:09:16.066Z,22.85
2023-02-09T17:11:43.275Z,22.48
2023-02-09T17:14:10.431Z,19.60
2023-02-09T17:16:40.136Z,18.25
2023-02-09T17:19:14.169Z,21.98
2023-02-09T17:21:41.436Z,22.67
2023-02-09T17:24:17.857Z,25.17
2023-02-09T17:26:45.170Z,21.88
2023-02-09T17:29:12.786Z,19.38
2023-02-09T17:31:52.808Z,17.60
2023-02-09T17:34:27.126Z,21.58
2023-02-09T17:36:55.648Z,22.70
2023-02-09T17:39:22.666Z,28.23
2023-02-09T17:41:50.143Z,20.77
2023-02-09T17:44:43.401Z,18.30
2023-02-09T17:47:18.627Z,20.50
2023-02-09T17:49:46.399Z,18.95
2023-02-09T17:52:18.778Z,18.55
2023-02-09T17:54:46.984Z,27.48
2023-02-09T17:57:16.433Z,16.98
2023-02-09T17:59:44.010Z,18.33
2023-02-09T18:02:17.413Z,19.15
2023-02-09T18:04:44.852Z,22.88
2023-02-09T18:07:13.996Z,21.67
2023-02-09T18:09:41.319Z,15.88
2023-02-09T18:12:18.809Z,18.90
2023-02-09T18:14:46.391Z,21.40
2023-02-09T18:17:13.661Z,13.43
2023-02-09T18:19:40.633Z,18.33
2023-02-09T18:22:07.601Z,24.38
2023-02-09T18:24:35.384Z,18.17
2023-02-09T18:27:03.091Z,21.83
2023-02-09T18:29:30.361Z,22.45
2023-02-09T18:32:02.352Z,19.48
2023-02-09T18:34:29.896Z,24.35
2023-02-09T18:36:57.181Z,17.73
2023-02-09T18:39:24.243Z,18.17
2023-02-09T18:41:54.887Z,15.40
2023-02-09T18:44:29.429Z,17.58
2023-02-09T18:46:57.808Z,17.45
2023-02-09T18:49:24.801Z,19.40
2023-02-09T18:51:52.418Z,15.15
2023-02-09T18:54:19.578Z,20.77
2023-02-09T18:56:46.767Z,21.70
2023-02-09T18:59:13.943Z,17.27
2023-02-09T19:01:41.142Z,16.30
2023-02-09T19:04:08.480Z,20.60
2023-02-09T19:06:35.817Z,18.25
2023-02-09T19:09:03.229Z,18.65
2023-02-09T19:11:30.240Z,17.92
2023-02-09T19:14:29.358Z,15.43
2023-02-09T19:16:56.288Z,17.48
2023-02-09T19:19:23.230Z,21.27
2023-02-09T19:21:52.239Z,16.65
2023-02-09T19:24:19.462Z,18.58
2023-02-09T19:26:46.468Z,16.60
2023-02-09T19:29:14.298Z,17.73
2023-02-09T19:31:41.408Z,17.88
2023-02-09T19:34:08.381Z,19.13
2023-02-09T19:36:35.346Z,15.15
2023-02-09T19:39:02.446Z,15.18
2023-02-09T19:41:29.461Z,18.08
2023-02-09T19:43:57.854Z,15.77
2023-02-09T19:46:26.026Z,16.52
2023-02-09T19:48:56.507Z,15.93
2023-02-09T19:51:24.042Z,26.25
2023-02-09T19:53:51.651Z,15.30
2023-02-09T19:56:21.175Z,19.20
2023-02-09T19:58:48.301Z,13.68
2023-02-09T20:01:15.941Z,20.13
2023-02-09T20:03:43.270Z,15.80
2023-02-09T20:06:14.027Z,15.60
2023-02-09T20:08:42.252Z,17.42
2023-02-09T20:11:16.251Z,15.15
2023-02-09T20:13:43.404Z,18.48
2023-02-09T20:16:14.105Z,13.00
2023-02-09T20:18:41.414Z,15.68
2023-02-09T20:21:09.706Z,21.60
2023-02-09T20:23:37.647Z,9.40
2023-02-09T20:26:19.383Z,12.30
2023-02-09T20:28:46.754Z,16.27
2023-02-09T20:31:22.193Z,12.50
2023-02-09T20:33:49.611Z,9.75
2023-02-09T20:36:17.208Z,14.20
2023-02-09T20:38:44.988Z,11.35
2023-02-09T20:41:15.440Z,13.20
2023-02-09T20:44:01.663Z,12.27
2023-02-09T20:49:17.713Z,13.93
2023-02-09T20:51:46.061Z,7.57
2023-02-09T20:54:18.226Z,12.18
2023-02-09T20:56:45.882Z,12.30
2023-02-09T20:59:14.057Z,14.80
2023-02-09T21:01:41.872Z,9.40
2023-02-09T21:04:09.573Z,9.05
2023-02-09T21:06:38.096Z,9.75
2023-02-09T21:09:12.207Z,10.95
2023-02-09T21:11:39.564Z,25.55
2023-02-09T21:14:06.584Z,15.50
2023-02-09T21:16:34.106Z,11.55
2023-02-09T21:19:01.839Z,11.90
2023-02-09T21:21:29.703Z,15.35
2023-02-09T21:23:57.003Z,7.03
2023-02-09T21:26:24.593Z,14.82
2023-02-09T21:28:56.299Z,13.85
2023-02-09T21:31:27.235Z,14.77
2023-02-09T21:33:54.633Z,19.92
2023-02-09T21:36:21.555Z,10.52
2023-02-09T21:38:48.680Z,17.08
2023-02-09T21:41:40.013Z,13.32
2023-02-09T21:44:07.716Z,11.07
2023-02-09T21:46:34.810Z,12.18
2023-02-09T21:49:01.879Z,8.55
2023-02-09T21:51:37.062Z,11.27
2023-02-09T21:54:04.447Z,7.05
2023-02-09T21:56:31.390Z,3.50
2023-02-09T21:58:58.330Z,2.13
2023-02-09T22:01:25.564Z,3.38
2023-02-09T22:03:57.497Z,4.32
2023-02-09T22:06:26.196Z,6.13
2023-02-09T22:08:53.390Z,2.60
2023-02-09T22:11:20.456Z,5.72
2023-02-09T22:13:47.456Z,3.33
2023-02-09T22:16:19.821Z,4.15
2023-02-09T22:18:46.962Z,12.30
2023-02-09T22:21:14.368Z,6.07
2023-02-09T22:23:41.392Z,9.85
2023-02-09T22:26:08.857Z,8.65
2023-02-09T22:28:36.663Z,4.00
2023-02-09T22:31:16.311Z,8.68
2023-02-09T22:33:43.829Z,5.32
2023-02-09T22:36:16.495Z,6.43
2023-02-09T22:38:47.375Z,4.15
2023-02-09T22:41:23.539Z,10.00
2023-02-09T22:43:58.619Z,7.55
2023-02-09T22:46:29.464Z,5.18
2023-02-09T22:49:01.544Z,6.32
2023-02-09T22:51:31.171Z,5.45
2023-02-09T22:53:59.248Z,5.05
2023-02-09T22:56:27.990Z,10.73
2023-02-09T22:58:56.535Z,8.65
2023-02-09T23:01:24.154Z,18.50
2023-02-09T23:03:51.825Z,9.00
2023-02-09T23:06:23.506Z,5.55
2023-02-09T23:08:53.987Z,7.28
2023-02-09T23:11:21.188Z,10.90
2023-02-09T23:13:52.846Z,11.15
2023-02-09T23:16:25.885Z,4.43
2023-02-09T23:18:58.827Z,4.95
2023-02-09T23:21:33.246Z,5.05
2023-02-09T23:24:00.210Z,3.85
2023-02-09T23:26:27.966Z,6.35
2023-02-09T23:28:57.298Z,7.15
2023-02-09T23:31:25.483Z,8.40
2023-02-09T23:33:52.774Z,4.57
2023-02-09T23:36:22.937Z,3.95
2023-02-09T23:38:57.098Z,7.45
2023-02-09T23:41:24.842Z,3.25
2023-02-09T23:43:53.163Z,8.00
2023-02-09T23:46:23.276Z,3.17
2023-02-09T23:48:50.765Z,3.75
2023-02-09T23:51:19.868Z,4.93
2023-02-09T23:53:47.717Z,9.88
2023-02-09T23:56:16.545Z,7.85
2023-02-09T23:58:45.865Z,4.30
